sensor_id;sensor_type;location;lat;lon;timestamp;P1;durP1;ratioP1;P2;durP2;ratioP2
51686;SDS011;37774;52.192;4.584;2023-09-19T00:02:41;16.10;;;1.35;;
51686;SDS011;37774;52.192;4.584;2023-09-19T00:05:34;10.77;;;1.85;;
51686;SDS011;37774;52.192;4.584;2023-09-19T00:08:22;3.50;;;1.25;;
51686;SDS011;37774;52.192;4.584;2023-09-19T00:11:07;10.43;;;1.67;;
51686;SDS011;37774;52.192;4.584;2023-09-19T00:13:54;5.22;;;1.20;;
51686;SDS011;37774;52.192;4.584;2023-09-19T00:16:42;8.88;;;1.13;;
51686;SDS011;37774;52.192;4.584;2023-09-19T00:19:30;4.07;;;1.15;;
51686;SDS011;37774;52.192;4.584;2023-09-19T00:22:16;4.55;;;1.25;;
51686;SDS011;37774;52.192;4.584;2023-09-19T00:25:02;5.32;;;1.33;;
51686;SDS011;37774;52.192;4.584;2023-09-19T00:27:50;12.60;;;2.00;;
51686;SDS011;37774;52.192;4.584;2023-09-19T00:30:35;2.85;;;0.95;;
51686;SDS011;37774;52.192;4.584;2023-09-19T00:33:22;6.25;;;1.48;;
51686;SDS011;37774;52.192;4.584;2023-09-19T00:36:09;6.38;;;1.30;;
51686;SDS011;37774;52.192;4.584;2023-09-19T00:38:54;6.75;;;1.75;;
51686;SDS011;37774;52.192;4.584;2023-09-19T00:41:40;15.98;;;1.63;;
51686;SDS011;37774;52.192;4.584;2023-09-19T00:44:28;7.25;;;1.10;;
51686;SDS011;37774;52.192;4.584;2023-09-19T00:47:14;11.07;;;1.52;;
51686;SDS011;37774;52.192;4.584;2023-09-19T00:50:01;9.07;;;1.75;;
51686;SDS011;37774;52.192;4.584;2023-09-19T00:52:53;14.43;;;1.73;;
51686;SDS011;37774;52.192;4.584;2023-09-19T00:55:41;7.95;;;1.60;;
51686;SDS011;37774;52.192;4.584;2023-09-19T00:58:27;15.70;;;1.42;;
51686;SDS011;37774;52.192;4.584;2023-09-19T01:01:17;6.30;;;0.98;;
51686;SDS011;37774;52.192;4.584;2023-09-19T01:04:04;10.43;;;1.30;;
51686;SDS011;37774;52.192;4.584;2023-09-19T01:06:49;7.75;;;1.40;;
51686;SDS011;37774;52.192;4.584;2023-09-19T01:12:24;13.95;;;1.95;;
51686;SDS011;37774;52.192;4.584;2023-09-19T01:15:20;15.00;;;1.67;;
51686;SDS011;37774;52.192;4.584;2023-09-19T01:18:21;22.35;;;2.40;;
51686;SDS011;37774;52.192;4.584;2023-09-19T01:21:22;5.38;;;1.30;;
51686;SDS011;37774;52.192;4.584;2023-09-19T01:27:40;8.05;;;1.52;;
51686;SDS011;37774;52.192;4.584;2023-09-19T01:30:46;10.07;;;2.05;;
51686;SDS011;37774;52.192;4.584;2023-09-19T01:36:44;4.55;;;1.45;;
51686;SDS011;37774;52.192;4.584;2023-09-19T01:39:30;9.90;;;1.58;;
51686;SDS011;37774;52.192;4.584;2023-09-19T01:42:19;5.88;;;1.55;;
51686;SDS011;37774;52.192;4.584;2023-09-19T01:45:18;13.40;;;1.40;;
51686;SDS011;37774;52.192;4.584;2023-09-19T01:48:13;15.70;;;1.90;;
51686;SDS011;37774;52.192;4.584;2023-09-19T01:51:06;5.93;;;1.25;;
51686;SDS011;37774;52.192;4.584;2023-09-19T01:53:53;11.68;;;2.00;;
51686;SDS011;37774;52.192;4.584;2023-09-19T01:56:48;13.80;;;1.92;;
51686;SDS011;37774;52.192;4.584;2023-09-19T01:59:41;6.60;;;1.58;;
51686;SDS011;37774;52.192;4.584;2023-09-19T02:02:34;8.52;;;1.52;;
51686;SDS011;37774;52.192;4.584;2023-09-19T02:05:26;11.00;;;1.67;;
51686;SDS011;37774;52.192;4.584;2023-09-19T02:08:11;8.32;;;1.48;;
51686;SDS011;37774;52.192;4.584;2023-09-19T02:11:00;6.30;;;1.83;;
51686;SDS011;37774;52.192;4.584;2023-09-19T02:13:46;9.77;;;1.38;;
51686;SDS011;37774;52.192;4.584;2023-09-19T02:16:31;11.77;;;1.67;;
51686;SDS011;37774;52.192;4.584;2023-09-19T02:19:16;8.68;;;2.15;;
51686;SDS011;37774;52.192;4.584;2023-09-19T02:22:04;18.13;;;2.25;;
51686;SDS011;37774;52.192;4.584;2023-09-19T02:24:51;8.45;;;1.85;;
51686;SDS011;37774;52.192;4.584;2023-09-19T02:27:37;12.43;;;2.35;;
51686;SDS011;37774;52.192;4.584;2023-09-19T02:30:23;17.65;;;1.90;;
51686;SDS011;37774;52.192;4.584;2023-09-19T02:33:09;17.13;;;1.58;;
51686;SDS011;37774;52.192;4.584;2023-09-19T02:35:55;11.60;;;1.25;;
51686;SDS011;37774;52.192;4.584;2023-09-19T02:38:43;8.75;;;1.60;;
51686;SDS011;37774;52.192;4.584;2023-09-19T02:41:29;10.80;;;1.70;;
51686;SDS011;37774;52.192;4.584;2023-09-19T02:44:16;7.88;;;2.15;;
51686;SDS011;37774;52.192;4.584;2023-09-19T02:47:04;6.57;;;1.50;;
51686;SDS011;37774;52.192;4.584;2023-09-19T02:49:49;11.02;;;1.77;;
51686;SDS011;37774;52.192;4.584;2023-09-19T02:52:34;10.35;;;1.75;;
51686;SDS011;37774;52.192;4.584;2023-09-19T02:55:21;9.70;;;1.60;;
51686;SDS011;37774;52.192;4.584;2023-09-19T02:58:07;15.98;;;1.40;;
51686;SDS011;37774;52.192;4.584;2023-09-19T03:00:55;10.55;;;1.45;;
51686;SDS011;37774;52.192;4.584;2023-09-19T03:03:40;8.52;;;1.45;;
51686;SDS011;37774;52.192;4.584;2023-09-19T03:06:26;5.28;;;1.13;;
51686;SDS011;37774;52.192;4.584;2023-09-19T03:09:14;6.38;;;1.60;;
51686;SDS011;37774;52.192;4.584;2023-09-19T03:12:02;11.55;;;1.70;;
51686;SDS011;37774;52.192;4.584;2023-09-19T03:14:48;7.88;;;1.65;;
51686;SDS011;37774;52.192;4.584;2023-09-19T03:17:34;10.15;;;1.48;;
51686;SDS011;37774;52.192;4.584;2023-09-19T03:20:19;5.78;;;1.40;;
51686;SDS011;37774;52.192;4.584;2023-09-19T03:23:05;5.18;;;1.52;;
51686;SDS011;37774;52.192;4.584;2023-09-19T03:25:50;7.90;;;1.27;;
51686;SDS011;37774;52.192;4.584;2023-09-19T03:28:37;10.73;;;1.60;;
51686;SDS011;37774;52.192;4.584;2023-09-19T03:31:23;8.07;;;1.73;;
51686;SDS011;37774;52.192;4.584;2023-09-19T03:34:08;8.93;;;1.02;;
51686;SDS011;37774;52.192;4.584;2023-09-19T03:36:53;4.05;;;1.67;;
51686;SDS011;37774;52.192;4.584;2023-09-19T03:39:39;8.88;;;1.50;;
51686;SDS011;37774;52.192;4.584;2023-09-19T03:42:24;5.85;;;1.58;;
51686;SDS011;37774;52.192;4.584;2023-09-19T03:45:11;14.75;;;1.63;;
51686;SDS011;37774;52.192;4.584;2023-09-19T03:47:56;9.27;;;1.20;;
51686;SDS011;37774;52.192;4.584;2023-09-19T03:50:42;10.02;;;1.27;;
51686;SDS011;37774;52.192;4.584;2023-09-19T03:53:28;13.13;;;1.20;;
51686;SDS011;37774;52.192;4.584;2023-09-19T03:56:13;6.72;;;1.38;;
51686;SDS011;37774;52.192;4.584;2023-09-19T03:58:59;7.93;;;1.23;;
51686;SDS011;37774;52.192;4.584;2023-09-19T04:01:45;16.20;;;2.47;;
51686;SDS011;37774;52.192;4.584;2023-09-19T04:04:31;7.28;;;1.42;;
51686;SDS011;37774;52.192;4.584;2023-09-19T04:07:16;8.27;;;0.88;;
51686;SDS011;37774;52.192;4.584;2023-09-19T04:10:02;15.70;;;1.55;;
51686;SDS011;37774;52.192;4.584;2023-09-19T04:12:51;18.08;;;1.27;;
51686;SDS011;37774;52.192;4.584;2023-09-19T04:15:37;7.07;;;1.10;;
51686;SDS011;37774;52.192;4.584;2023-09-19T04:18:25;13.70;;;1.40;;
51686;SDS011;37774;52.192;4.584;2023-09-19T04:21:11;10.80;;;1.45;;
51686;SDS011;37774;52.192;4.584;2023-09-19T04:23:56;8.15;;;1.00;;
51686;SDS011;37774;52.192;4.584;2023-09-19T04:26:41;6.80;;;1.08;;
51686;SDS011;37774;52.192;4.584;2023-09-19T04:29:27;11.00;;;1.40;;
51686;SDS011;37774;52.192;4.584;2023-09-19T04:32:13;7.65;;;1.25;;
51686;SDS011;37774;52.192;4.584;2023-09-19T04:35:00;5.37;;;1.53;;
51686;SDS011;37774;52.192;4.584;2023-09-19T04:37:49;6.13;;;1.15;;
51686;SDS011;37774;52.192;4.584;2023-09-19T04:40:36;10.63;;;1.80;;
51686;SDS011;37774;52.192;4.584;2023-09-19T04:43:23;10.38;;;1.20;;
51686;SDS011;37774;52.192;4.584;2023-09-19T04:46:09;7.00;;;0.98;;
51686;SDS011;37774;52.192;4.584;2023-09-19T04:48:57;7.10;;;0.88;;
51686;SDS011;37774;52.192;4.584;2023-09-19T04:51:44;8.75;;;1.88;;
51686;SDS011;37774;52.192;4.584;2023-09-19T04:54:31;3.80;;;1.10;;
51686;SDS011;37774;52.192;4.584;2023-09-19T04:57:17;7.60;;;1.10;;
51686;SDS011;37774;52.192;4.584;2023-09-19T05:00:03;13.05;;;1.80;;
51686;SDS011;37774;52.192;4.584;2023-09-19T05:02:56;11.40;;;1.52;;
51686;SDS011;37774;52.192;4.584;2023-09-19T05:05:42;10.10;;;1.40;;
51686;SDS011;37774;52.192;4.584;2023-09-19T05:08:29;8.18;;;1.45;;
51686;SDS011;37774;52.192;4.584;2023-09-19T05:11:14;2.88;;;1.10;;
51686;SDS011;37774;52.192;4.584;2023-09-19T05:13:59;7.88;;;1.50;;
51686;SDS011;37774;52.192;4.584;2023-09-19T05:16:47;8.70;;;1.33;;
51686;SDS011;37774;52.192;4.584;2023-09-19T05:19:33;6.50;;;0.98;;
51686;SDS011;37774;52.192;4.584;2023-09-19T05:22:19;7.13;;;1.67;;
51686;SDS011;37774;52.192;4.584;2023-09-19T05:25:06;10.85;;;1.58;;
51686;SDS011;37774;52.192;4.584;2023-09-19T05:27:52;7.93;;;1.58;;
51686;SDS011;37774;52.192;4.584;2023-09-19T05:30:38;8.68;;;1.90;;
51686;SDS011;37774;52.192;4.584;2023-09-19T05:33:24;5.93;;;1.15;;
51686;SDS011;37774;52.192;4.584;2023-09-19T05:36:10;8.10;;;1.23;;
51686;SDS011;37774;52.192;4.584;2023-09-19T05:38:55;8.45;;;2.00;;
51686;SDS011;37774;52.192;4.584;2023-09-19T05:41:42;9.77;;;1.27;;
51686;SDS011;37774;52.192;4.584;2023-09-19T05:44:27;12.98;;;2.30;;
51686;SDS011;37774;52.192;4.584;2023-09-19T05:47:13;11.13;;;1.30;;
51686;SDS011;37774;52.192;4.584;2023-09-19T05:49:58;10.70;;;2.25;;
51686;SDS011;37774;52.192;4.584;2023-09-19T05:52:47;10.10;;;1.55;;
51686;SDS011;37774;52.192;4.584;2023-09-19T05:55:37;6.53;;;1.73;;
51686;SDS011;37774;52.192;4.584;2023-09-19T05:58:23;6.03;;;1.17;;
51686;SDS011;37774;52.192;4.584;2023-09-19T06:01:09;17.40;;;2.08;;
51686;SDS011;37774;52.192;4.584;2023-09-19T06:03:54;11.02;;;2.05;;
51686;SDS011;37774;52.192;4.584;2023-09-19T06:06:40;11.18;;;1.30;;
51686;SDS011;37774;52.192;4.584;2023-09-19T06:09:25;8.40;;;1.88;;
51686;SDS011;37774;52.192;4.584;2023-09-19T06:12:11;5.33;;;2.50;;
51686;SDS011;37774;52.192;4.584;2023-09-19T06:15:01;11.10;;;2.47;;
51686;SDS011;37774;52.192;4.584;2023-09-19T06:17:46;15.48;;;2.08;;
51686;SDS011;37774;52.192;4.584;2023-09-19T06:20:33;14.75;;;1.95;;
51686;SDS011;37774;52.192;4.584;2023-09-19T06:23:18;10.60;;;2.00;;
51686;SDS011;37774;52.192;4.584;2023-09-19T06:26:06;13.90;;;2.40;;
51686;SDS011;37774;52.192;4.584;2023-09-19T06:28:51;17.20;;;1.98;;
51686;SDS011;37774;52.192;4.584;2023-09-19T06:31:40;16.05;;;2.10;;
51686;SDS011;37774;52.192;4.584;2023-09-19T06:34:25;10.35;;;2.22;;
51686;SDS011;37774;52.192;4.584;2023-09-19T06:37:11;4.50;;;1.50;;
51686;SDS011;37774;52.192;4.584;2023-09-19T06:39:56;10.70;;;2.30;;
51686;SDS011;37774;52.192;4.584;2023-09-19T06:42:42;9.02;;;2.97;;
51686;SDS011;37774;52.192;4.584;2023-09-19T06:48:17;14.30;;;2.00;;
51686;SDS011;37774;52.192;4.584;2023-09-19T06:51:03;7.18;;;2.33;;
51686;SDS011;37774;52.192;4.584;2023-09-19T06:53:49;22.95;;;2.53;;
51686;SDS011;37774;52.192;4.584;2023-09-19T06:56:35;17.02;;;1.83;;
51686;SDS011;37774;52.192;4.584;2023-09-19T06:59:20;16.05;;;2.20;;
51686;SDS011;37774;52.192;4.584;2023-09-19T07:02:05;22.25;;;4.00;;
51686;SDS011;37774;52.192;4.584;2023-09-19T07:04:53;13.53;;;1.60;;
51686;SDS011;37774;52.192;4.584;2023-09-19T07:07:38;13.95;;;1.48;;
51686;SDS011;37774;52.192;4.584;2023-09-19T07:10:24;12.50;;;2.17;;
51686;SDS011;37774;52.192;4.584;2023-09-19T07:13:10;10.60;;;1.73;;
51686;SDS011;37774;52.192;4.584;2023-09-19T07:15:56;6.55;;;2.58;;
51686;SDS011;37774;52.192;4.584;2023-09-19T07:21:30;21.10;;;2.90;;
51686;SDS011;37774;52.192;4.584;2023-09-19T07:27:01;9.00;;;1.92;;
51686;SDS011;37774;52.192;4.584;2023-09-19T07:29:49;13.95;;;2.22;;
51686;SDS011;37774;52.192;4.584;2023-09-19T07:32:35;14.73;;;1.85;;
51686;SDS011;37774;52.192;4.584;2023-09-19T07:35:22;15.45;;;2.33;;
51686;SDS011;37774;52.192;4.584;2023-09-19T07:38:08;11.07;;;1.83;;
51686;SDS011;37774;52.192;4.584;2023-09-19T07:40:59;21.77;;;3.50;;
51686;SDS011;37774;52.192;4.584;2023-09-19T07:43:46;9.93;;;1.95;;
51686;SDS011;37774;52.192;4.584;2023-09-19T07:46:31;11.75;;;2.13;;
51686;SDS011;37774;52.192;4.584;2023-09-19T07:49:16;17.58;;;2.42;;
51686;SDS011;37774;52.192;4.584;2023-09-19T07:52:03;11.23;;;1.92;;
51686;SDS011;37774;52.192;4.584;2023-09-19T07:54:50;19.20;;;2.53;;
51686;SDS011;37774;52.192;4.584;2023-09-19T07:57:35;8.90;;;1.83;;
51686;SDS011;37774;52.192;4.584;2023-09-19T08:00:21;16.60;;;2.53;;
51686;SDS011;37774;52.192;4.584;2023-09-19T08:03:06;21.40;;;3.10;;
51686;SDS011;37774;52.192;4.584;2023-09-19T08:05:52;15.60;;;2.08;;
51686;SDS011;37774;52.192;4.584;2023-09-19T08:08:38;12.13;;;2.78;;
51686;SDS011;37774;52.192;4.584;2023-09-19T08:11:25;13.82;;;1.92;;
51686;SDS011;37774;52.192;4.584;2023-09-19T08:14:13;10.45;;;2.10;;
51686;SDS011;37774;52.192;4.584;2023-09-19T08:16:59;11.98;;;2.40;;
51686;SDS011;37774;52.192;4.584;2023-09-19T08:19:45;10.57;;;2.17;;
51686;SDS011;37774;52.192;4.584;2023-09-19T08:22:30;14.82;;;2.17;;
51686;SDS011;37774;52.192;4.584;2023-09-19T08:25:16;14.13;;;1.90;;
51686;SDS011;37774;52.192;4.584;2023-09-19T08:28:04;12.40;;;2.77;;
51686;SDS011;37774;52.192;4.584;2023-09-19T08:30:52;11.25;;;2.53;;
51686;SDS011;37774;52.192;4.584;2023-09-19T08:33:38;14.35;;;1.92;;
51686;SDS011;37774;52.192;4.584;2023-09-19T08:36:24;17.95;;;2.92;;
51686;SDS011;37774;52.192;4.584;2023-09-19T08:39:09;10.98;;;1.70;;
51686;SDS011;37774;52.192;4.584;2023-09-19T08:41:56;9.32;;;2.35;;
51686;SDS011;37774;52.192;4.584;2023-09-19T08:44:45;15.52;;;2.47;;
51686;SDS011;37774;52.192;4.584;2023-09-19T08:47:31;17.10;;;2.70;;
51686;SDS011;37774;52.192;4.584;2023-09-19T08:50:23;10.63;;;1.92;;
51686;SDS011;37774;52.192;4.584;2023-09-19T08:53:15;12.50;;;2.70;;
51686;SDS011;37774;52.192;4.584;2023-09-19T08:56:11;15.57;;;2.30;;
51686;SDS011;37774;52.192;4.584;2023-09-19T08:58:59;17.77;;;2.45;;
51686;SDS011;37774;52.192;4.584;2023-09-19T09:01:46;20.00;;;2.55;;
51686;SDS011;37774;52.192;4.584;2023-09-19T09:04:33;12.55;;;2.13;;
51686;SDS011;37774;52.192;4.584;2023-09-19T09:07:20;18.85;;;3.17;;
51686;SDS011;37774;52.192;4.584;2023-09-19T09:10:06;9.67;;;2.07;;
51686;SDS011;37774;52.192;4.584;2023-09-19T09:12:52;17.73;;;3.20;;
51686;SDS011;37774;52.192;4.584;2023-09-19T09:15:38;7.13;;;1.80;;
51686;SDS011;37774;52.192;4.584;2023-09-19T09:18:29;11.75;;;1.63;;
51686;SDS011;37774;52.192;4.584;2023-09-19T09:21:15;12.77;;;2.40;;
51686;SDS011;37774;52.192;4.584;2023-09-19T09:24:08;12.38;;;2.03;;
51686;SDS011;37774;52.192;4.584;2023-09-19T09:27:12;15.15;;;2.40;;
51686;SDS011;37774;52.192;4.584;2023-09-19T09:29:58;9.27;;;1.92;;
51686;SDS011;37774;52.192;4.584;2023-09-19T09:32:43;15.57;;;2.78;;
51686;SDS011;37774;52.192;4.584;2023-09-19T09:35:30;14.70;;;2.90;;
51686;SDS011;37774;52.192;4.584;2023-09-19T09:38:15;10.88;;;2.13;;
51686;SDS011;37774;52.192;4.584;2023-09-19T09:41:02;25.77;;;3.33;;
51686;SDS011;37774;52.192;4.584;2023-09-19T09:43:50;22.38;;;2.47;;
51686;SDS011;37774;52.192;4.584;2023-09-19T09:46:35;15.82;;;2.63;;
51686;SDS011;37774;52.192;4.584;2023-09-19T09:49:59;11.68;;;1.95;;
51686;SDS011;37774;52.192;4.584;2023-09-19T09:53:02;16.63;;;2.30;;
51686;SDS011;37774;52.192;4.584;2023-09-19T09:55:57;18.25;;;2.83;;
51686;SDS011;37774;52.192;4.584;2023-09-19T09:58:49;13.65;;;1.40;;
51686;SDS011;37774;52.192;4.584;2023-09-19T10:01:46;10.18;;;1.70;;
51686;SDS011;37774;52.192;4.584;2023-09-19T10:04:32;17.83;;;2.35;;
51686;SDS011;37774;52.192;4.584;2023-09-19T10:07:24;16.02;;;2.97;;
51686;SDS011;37774;52.192;4.584;2023-09-19T10:10:25;13.02;;;2.17;;
51686;SDS011;37774;52.192;4.584;2023-09-19T10:13:21;15.95;;;1.80;;
51686;SDS011;37774;52.192;4.584;2023-09-19T10:16:11;5.10;;;1.58;;
51686;SDS011;37774;52.192;4.584;2023-09-19T10:18:58;11.77;;;1.60;;
51686;SDS011;37774;52.192;4.584;2023-09-19T10:21:47;11.63;;;1.13;;
51686;SDS011;37774;52.192;4.584;2023-09-19T10:24:33;9.57;;;1.83;;
51686;SDS011;37774;52.192;4.584;2023-09-19T10:27:21;8.50;;;1.83;;
51686;SDS011;37774;52.192;4.584;2023-09-19T10:30:10;13.75;;;1.95;;
51686;SDS011;37774;52.192;4.584;2023-09-19T10:33:00;12.70;;;2.08;;
51686;SDS011;37774;52.192;4.584;2023-09-19T10:35:46;16.58;;;2.13;;
51686;SDS011;37774;52.192;4.584;2023-09-19T10:38:35;8.63;;;1.65;;
51686;SDS011;37774;52.192;4.584;2023-09-19T10:41:24;10.20;;;1.77;;
51686;SDS011;37774;52.192;4.584;2023-09-19T10:44:13;10.43;;;1.35;;
51686;SDS011;37774;52.192;4.584;2023-09-19T10:47:02;9.20;;;1.65;;
51686;SDS011;37774;52.192;4.584;2023-09-19T10:49:50;16.33;;;1.90;;
51686;SDS011;37774;52.192;4.584;2023-09-19T10:52:37;9.45;;;1.58;;
51686;SDS011;37774;52.192;4.584;2023-09-19T10:55:25;3.63;;;1.08;;
51686;SDS011;37774;52.192;4.584;2023-09-19T10:58:14;10.95;;;1.50;;
51686;SDS011;37774;52.192;4.584;2023-09-19T11:01:13;12.35;;;1.13;;
51686;SDS011;37774;52.192;4.584;2023-09-19T11:07:08;10.73;;;2.38;;
51686;SDS011;37774;52.192;4.584;2023-09-19T11:09:55;11.20;;;1.40;;
51686;SDS011;37774;52.192;4.584;2023-09-19T11:12:48;6.90;;;1.25;;
51686;SDS011;37774;52.192;4.584;2023-09-19T11:18:53;9.57;;;1.40;;
51686;SDS011;37774;52.192;4.584;2023-09-19T11:21:52;10.95;;;1.95;;
51686;SDS011;37774;52.192;4.584;2023-09-19T11:24:41;14.13;;;1.55;;
51686;SDS011;37774;52.192;4.584;2023-09-19T11:27:26;10.45;;;1.52;;
51686;SDS011;37774;52.192;4.584;2023-09-19T11:30:28;9.60;;;1.25;;
51686;SDS011;37774;52.192;4.584;2023-09-19T11:33:17;13.48;;;1.88;;
51686;SDS011;37774;52.192;4.584;2023-09-19T11:36:07;10.65;;;1.60;;
51686;SDS011;37774;52.192;4.584;2023-09-19T11:38:59;9.52;;;2.13;;
51686;SDS011;37774;52.192;4.584;2023-09-19T11:41:58;6.57;;;1.65;;
51686;SDS011;37774;52.192;4.584;2023-09-19T11:44:44;5.72;;;1.80;;
51686;SDS011;37774;52.192;4.584;2023-09-19T11:47:29;7.18;;;1.60;;
51686;SDS011;37774;52.192;4.584;2023-09-19T11:50:17;9.88;;;1.88;;
51686;SDS011;37774;52.192;4.584;2023-09-19T11:53:06;7.97;;;1.60;;
51686;SDS011;37774;52.192;4.584;2023-09-19T11:55:54;8.65;;;1.35;;
51686;SDS011;37774;52.192;4.584;2023-09-19T11:58:40;6.97;;;1.25;;
51686;SDS011;37774;52.192;4.584;2023-09-19T12:01:29;7.37;;;1.33;;
51686;SDS011;37774;52.192;4.584;2023-09-19T12:04:16;10.10;;;1.20;;
51686;SDS011;37774;52.192;4.584;2023-09-19T12:07:06;7.10;;;1.25;;
51686;SDS011;37774;52.192;4.584;2023-09-19T12:10:03;3.92;;;1.33;;
51686;SDS011;37774;52.192;4.584;2023-09-19T12:12:55;9.77;;;1.45;;
51686;SDS011;37774;52.192;4.584;2023-09-19T12:15:40;6.65;;;1.38;;
51686;SDS011;37774;52.192;4.584;2023-09-19T12:18:28;5.22;;;1.33;;
51686;SDS011;37774;52.192;4.584;2023-09-19T12:21:21;10.93;;;1.48;;
51686;SDS011;37774;52.192;4.584;2023-09-19T12:24:11;8.20;;;1.10;;
51686;SDS011;37774;52.192;4.584;2023-09-19T12:27:03;11.45;;;1.58;;
51686;SDS011;37774;52.192;4.584;2023-09-19T12:29:49;9.93;;;1.80;;
51686;SDS011;37774;52.192;4.584;2023-09-19T12:32:38;8.15;;;1.10;;
51686;SDS011;37774;52.192;4.584;2023-09-19T12:38:22;12.40;;;1.88;;
51686;SDS011;37774;52.192;4.584;2023-09-19T12:41:09;5.50;;;1.27;;
51686;SDS011;37774;52.192;4.584;2023-09-19T12:43:55;5.80;;;1.00;;
51686;SDS011;37774;52.192;4.584;2023-09-19T12:46:42;3.28;;;1.02;;
51686;SDS011;37774;52.192;4.584;2023-09-19T12:49:27;9.43;;;1.75;;
51686;SDS011;37774;52.192;4.584;2023-09-19T12:52:12;11.98;;;1.52;;
51686;SDS011;37774;52.192;4.584;2023-09-19T12:54:58;4.15;;;1.13;;
51686;SDS011;37774;52.192;4.584;2023-09-19T12:57:55;5.78;;;1.05;;
51686;SDS011;37774;52.192;4.584;2023-09-19T13:00:47;11.60;;;1.63;;
51686;SDS011;37774;52.192;4.584;2023-09-19T13:03:35;4.05;;;1.15;;
51686;SDS011;37774;52.192;4.584;2023-09-19T13:06:34;10.20;;;1.52;;
51686;SDS011;37774;52.192;4.584;2023-09-19T13:09:22;4.72;;;1.33;;
51686;SDS011;37774;52.192;4.584;2023-09-19T13:15:20;7.70;;;1.25;;
51686;SDS011;37774;52.192;4.584;2023-09-19T13:18:12;10.40;;;1.52;;
51686;SDS011;37774;52.192;4.584;2023-09-19T13:21:07;6.05;;;1.63;;
51686;SDS011;37774;52.192;4.584;2023-09-19T13:26:42;8.27;;;1.20;;
51686;SDS011;37774;52.192;4.584;2023-09-19T13:29:28;4.68;;;1.40;;
51686;SDS011;37774;52.192;4.584;2023-09-19T13:32:13;9.98;;;1.20;;
51686;SDS011;37774;52.192;4.584;2023-09-19T13:35:00;9.48;;;1.50;;
51686;SDS011;37774;52.192;4.584;2023-09-19T13:37:46;7.10;;;1.58;;
51686;SDS011;37774;52.192;4.584;2023-09-19T13:40:32;17.23;;;2.25;;
51686;SDS011;37774;52.192;4.584;2023-09-19T13:43:18;7.05;;;1.80;;
51686;SDS011;37774;52.192;4.584;2023-09-19T13:46:05;12.52;;;2.58;;
51686;SDS011;37774;52.192;4.584;2023-09-19T13:48:55;8.40;;;2.05;;
51686;SDS011;37774;52.192;4.584;2023-09-19T13:51:44;7.85;;;1.70;;
51686;SDS011;37774;52.192;4.584;2023-09-19T13:54:29;3.97;;;1.40;;
51686;SDS011;37774;52.192;4.584;2023-09-19T13:57:15;16.25;;;1.98;;
51686;SDS011;37774;52.192;4.584;2023-09-19T14:00:00;11.45;;;2.10;;
51686;SDS011;37774;52.192;4.584;2023-09-19T14:02:46;14.63;;;2.13;;
51686;SDS011;37774;52.192;4.584;2023-09-19T14:05:32;19.80;;;2.85;;
51686;SDS011;37774;52.192;4.584;2023-09-19T14:08:19;13.25;;;2.58;;
51686;SDS011;37774;52.192;4.584;2023-09-19T14:11:07;6.13;;;2.30;;
51686;SDS011;37774;52.192;4.584;2023-09-19T14:13:52;14.77;;;2.40;;
51686;SDS011;37774;52.192;4.584;2023-09-19T14:16:38;10.30;;;2.22;;
51686;SDS011;37774;52.192;4.584;2023-09-19T14:19:25;13.90;;;3.22;;
51686;SDS011;37774;52.192;4.584;2023-09-19T14:22:11;8.60;;;2.40;;
51686;SDS011;37774;52.192;4.584;2023-09-19T14:24:59;18.33;;;2.08;;
51686;SDS011;37774;52.192;4.584;2023-09-19T14:27:44;6.47;;;2.38;;
51686;SDS011;37774;52.192;4.584;2023-09-19T14:30:31;14.05;;;2.20;;
51686;SDS011;37774;52.192;4.584;2023-09-19T14:33:17;11.95;;;2.13;;
51686;SDS011;37774;52.192;4.584;2023-09-19T14:36:02;13.70;;;1.88;;
51686;SDS011;37774;52.192;4.584;2023-09-19T14:38:51;12.65;;;2.20;;
51686;SDS011;37774;52.192;4.584;2023-09-19T14:41:40;9.48;;;2.38;;
51686;SDS011;37774;52.192;4.584;2023-09-19T14:44:25;16.33;;;2.47;;
51686;SDS011;37774;52.192;4.584;2023-09-19T14:47:11;9.65;;;1.98;;
51686;SDS011;37774;52.192;4.584;2023-09-19T14:49:57;14.75;;;2.33;;
51686;SDS011;37774;52.192;4.584;2023-09-19T14:52:43;9.18;;;2.83;;
51686;SDS011;37774;52.192;4.584;2023-09-19T14:55:28;14.18;;;2.38;;
51686;SDS011;37774;52.192;4.584;2023-09-19T14:58:19;11.38;;;1.80;;
51686;SDS011;37774;52.192;4.584;2023-09-19T15:01:05;12.52;;;2.05;;
51686;SDS011;37774;52.192;4.584;2023-09-19T15:03:51;15.07;;;2.70;;
51686;SDS011;37774;52.192;4.584;2023-09-19T15:06:37;18.33;;;2.43;;
51686;SDS011;37774;52.192;4.584;2023-09-19T15:09:23;8.77;;;2.20;;
51686;SDS011;37774;52.192;4.584;2023-09-19T15:12:09;9.00;;;2.53;;
51686;SDS011;37774;52.192;4.584;2023-09-19T15:14:59;17.25;;;2.38;;
51686;SDS011;37774;52.192;4.584;2023-09-19T15:17:44;13.20;;;2.60;;
51686;SDS011;37774;52.192;4.584;2023-09-19T15:20:30;8.55;;;2.70;;
51686;SDS011;37774;52.192;4.584;2023-09-19T15:23:16;16.75;;;3.85;;
51686;SDS011;37774;52.192;4.584;2023-09-19T15:26:02;15.87;;;2.47;;
51686;SDS011;37774;52.192;4.584;2023-09-19T15:28:48;9.85;;;2.58;;
51686;SDS011;37774;52.192;4.584;2023-09-19T15:31:35;6.38;;;2.42;;
51686;SDS011;37774;52.192;4.584;2023-09-19T15:34:21;13.40;;;3.85;;
51686;SDS011;37774;52.192;4.584;2023-09-19T15:37:07;10.27;;;2.35;;
51686;SDS011;37774;52.192;4.584;2023-09-19T15:39:53;8.95;;;1.85;;
51686;SDS011;37774;52.192;4.584;2023-09-19T15:42:38;16.00;;;3.17;;
51686;SDS011;37774;52.192;4.584;2023-09-19T15:45:24;16.05;;;2.97;;
51686;SDS011;37774;52.192;4.584;2023-09-19T15:48:11;15.70;;;3.03;;
51686;SDS011;37774;52.192;4.584;2023-09-19T15:51:02;17.73;;;3.00;;
51686;SDS011;37774;52.192;4.584;2023-09-19T15:53:48;17.30;;;2.83;;
51686;SDS011;37774;52.192;4.584;2023-09-19T15:56:34;15.70;;;2.70;;
51686;SDS011;37774;52.192;4.584;2023-09-19T15:59:20;17.00;;;2.90;;
51686;SDS011;37774;52.192;4.584;2023-09-19T16:02:05;12.88;;;3.42;;
51686;SDS011;37774;52.192;4.584;2023-09-19T16:04:52;15.52;;;2.42;;
51686;SDS011;37774;52.192;4.584;2023-09-19T16:07:39;12.52;;;2.83;;
51686;SDS011;37774;52.192;4.584;2023-09-19T16:10:24;13.65;;;3.03;;
51686;SDS011;37774;52.192;4.584;2023-09-19T16:13:10;11.98;;;3.00;;
51686;SDS011;37774;52.192;4.584;2023-09-19T16:15:56;9.57;;;2.00;;
51686;SDS011;37774;52.192;4.584;2023-09-19T16:18:44;16.10;;;3.10;;
51686;SDS011;37774;52.192;4.584;2023-09-19T16:21:33;9.60;;;2.38;;
51686;SDS011;37774;52.192;4.584;2023-09-19T16:24:19;14.23;;;2.70;;
51686;SDS011;37774;52.192;4.584;2023-09-19T16:27:05;18.30;;;2.80;;
51686;SDS011;37774;52.192;4.584;2023-09-19T16:29:53;13.85;;;3.28;;
51686;SDS011;37774;52.192;4.584;2023-09-19T16:32:38;10.30;;;2.92;;
51686;SDS011;37774;52.192;4.584;2023-09-19T16:35:24;17.13;;;3.90;;
51686;SDS011;37774;52.192;4.584;2023-09-19T16:38:11;13.15;;;3.80;;
51686;SDS011;37774;52.192;4.584;2023-09-19T16:40:58;18.75;;;3.17;;
51686;SDS011;37774;52.192;4.584;2023-09-19T16:43:44;16.80;;;3.05;;
51686;SDS011;37774;52.192;4.584;2023-09-19T16:46:30;17.40;;;3.85;;
51686;SDS011;37774;52.192;4.584;2023-09-19T16:49:15;17.65;;;5.32;;
51686;SDS011;37774;52.192;4.584;2023-09-19T16:52:01;14.52;;;4.72;;
51686;SDS011;37774;52.192;4.584;2023-09-19T16:54:48;14.75;;;4.50;;
51686;SDS011;37774;52.192;4.584;2023-09-19T16:57:35;18.02;;;4.05;;
51686;SDS011;37774;52.192;4.584;2023-09-19T17:00:20;11.68;;;3.25;;
51686;SDS011;37774;52.192;4.584;2023-09-19T17:03:09;16.30;;;3.38;;
51686;SDS011;37774;52.192;4.584;2023-09-19T17:05:59;13.50;;;4.18;;
51686;SDS011;37774;52.192;4.584;2023-09-19T17:08:45;12.90;;;3.28;;
51686;SDS011;37774;52.192;4.584;2023-09-19T17:11:31;12.55;;;2.92;;
51686;SDS011;37774;52.192;4.584;2023-09-19T17:14:18;21.65;;;3.25;;
51686;SDS011;37774;52.192;4.584;2023-09-19T17:17:03;27.20;;;3.03;;